Sampatiki — D5DJ8 — position and weather

sailwx.info

Track history (hours):
 
Tides and Currents Weather Stations Pressure Air Temp Water Temp Dewpoint Dewpoint Depression Visibility Wind Speed Wind Dir Waves Ship Positions

Sampatiki

Last reported at 2018-Jan-19 03:00 UTC. Time now 2018-Jan-19 03:17 UTC.
Position N 44°12' E 028°46'.

Length 100 m; draft 5 m.

Type: Ship (hazmat cat A). MMSI: 636015901.

Date/timePositionNaut miles runAvg speedWind from/ knotsBaromVisibWave heightAir tempDewpointWater temp
2018-Jan-19 03:00N 44°12' E 028°46'0 0.0
2018-Jan-19 02:30N 44°12' E 028°46'0 0.0
2018-Jan-19 02:00N 44°12' E 028°46'0 0.0
2018-Jan-19 01:30N 44°12' E 028°46'0 0.0
2018-Jan-19 01:00N 44°12' E 028°46'0 0.0
2018-Jan-19 00:30N 44°12' E 028°46'0 0.0
2018-Jan-19 00:00N 44°12' E 028°46'0 0.0
2018-Jan-18 23:30N 44°12' E 028°46'0 0.0
2018-Jan-18 23:00N 44°12' E 028°46'0 0.0
2018-Jan-18 22:30N 44°12' E 028°46'0 0.0
2018-Jan-18 22:00N 44°12' E 028°46'0 0.0
2018-Jan-18 21:30N 44°12' E 028°46'0 0.0
2018-Jan-18 21:00N 44°12' E 028°46'0 0.0
2018-Jan-18 20:30N 44°12' E 028°46'0 0.0
2018-Jan-18 20:00N 44°12' E 028°46'0 0.0
2018-Jan-18 19:30N 44°12' E 028°46'0 0.0
2018-Jan-18 19:00N 44°12' E 028°46'0 0.0
2018-Jan-18 18:30N 44°12' E 028°46'0 0.0
2018-Jan-18 18:00N 44°12' E 028°46'0 0.0
2018-Jan-18 17:30N 44°12' E 028°46'0 0.0
2018-Jan-18 17:00N 44°12' E 028°46'0 0.0
2018-Jan-18 16:30N 44°12' E 028°46'0 0.0
2018-Jan-18 16:00N 44°12' E 028°46'0 0.0
2018-Jan-18 15:30N 44°12' E 028°46'0 0.0
2018-Jan-18 15:00N 44°12' E 028°46'0 0.0
2018-Jan-18 14:30N 44°12' E 028°46'0 0.1
2018-Jan-18 14:00N 44°12' E 028°46'0 0.5
2018-Jan-18 13:30N 44°12' E 028°46'1 2.5
2018-Jan-18 13:00N 44°11' E 028°47'2 4.1
2018-Jan-18 12:30N 44°13' E 028°46'2 4.4
2018-Jan-18 12:00N 44°11' E 028°48'2 3.3
2018-Jan-18 11:30N 44°10' E 028°49'1 2.5
2018-Jan-18 11:00N 44°09' E 028°50'1 1.2
2018-Jan-18 10:30N 44°08' E 028°51'1 1.8
2018-Jan-18 10:00N 44°08' E 028°51'1 1.4
2018-Jan-18 09:30N 44°07' E 028°50'1 1.1
2018-Jan-18 09:00N 44°07' E 028°50'0 0.3
2018-Jan-18 08:28N 44°07' E 028°49'1 1.3
2018-Jan-18 07:59N 44°08' E 028°49'0 0.1
2018-Jan-18 07:29N 44°08' E 028°49'0 0.1
2018-Jan-18 06:59N 44°08' E 028°49'0 0.0
2018-Jan-18 06:29N 44°08' E 028°49'0 0.1
2018-Jan-18 05:59N 44°08' E 028°49'0 0.0
2018-Jan-18 05:29N 44°08' E 028°49'0 0.0
2018-Jan-18 04:59N 44°08' E 028°49'0 0.0
2018-Jan-18 04:29N 44°08' E 028°49'0 0.0
2018-Jan-18 03:59N 44°08' E 028°49'0 0.1
2018-Jan-18 03:29N 44°08' E 028°49'0 0.1
2018-Jan-18 02:59N 44°08' E 028°49'0 0.0
2018-Jan-18 02:29N 44°08' E 028°49'0 0.1
2018-Jan-18 01:59N 44°08' E 028°49'0 0.0
2018-Jan-18 01:29N 44°08' E 028°49'0 0.1
2018-Jan-18 00:59N 44°08' E 028°49'0 0.1
2018-Jan-17 23:56N 44°08' E 028°49'  
2018-Jan-11 03:58N 39°46' E 024°54'510.2
2018-Jan-11 03:27N 39°47' E 024°47'22 9.9
2018-Jan-11 01:15N 39°49' E 024°19'2 9.6
2018-Jan-11 01:00N 39°50' E 024°16'5 9.5
2018-Jan-11 00:30N 39°50' E 024°09'5 9.4
2018-Jan-11 00:00N 39°50' E 024°03'  
Track history (hours):
 
Tides and Currents Weather Stations Pressure Air Temp Water Temp Dewpoint Dewpoint Depression Visibility Wind Speed Wind Dir Waves Ship Positions

Sampatiki

Last reported at 2018-Jan-19 03:00 UTC. Time now 2018-Jan-19 03:17 UTC.
Position N 44°12' E 028°46'.

Length 100 m; draft 5 m.

Type: Ship (hazmat cat A). MMSI: 636015901.

Date/timePositionNaut miles runAvg speedWind from/ knotsBaromVisibWave heightAir tempDewpointWater temp
2018-Jan-19 03:00N 44°12' E 028°46'0 0.0
2018-Jan-19 02:30N 44°12' E 028°46'0 0.0
2018-Jan-19 02:00N 44°12' E 028°46'0 0.0
2018-Jan-19 01:30N 44°12' E 028°46'0 0.0
2018-Jan-19 01:00N 44°12' E 028°46'0 0.0
2018-Jan-19 00:30N 44°12' E 028°46'0 0.0
2018-Jan-19 00:00N 44°12' E 028°46'0 0.0
2018-Jan-18 23:30N 44°12' E 028°46'0 0.0
2018-Jan-18 23:00N 44°12' E 028°46'0 0.0
2018-Jan-18 22:30N 44°12' E 028°46'0 0.0
2018-Jan-18 22:00N 44°12' E 028°46'0 0.0
2018-Jan-18 21:30N 44°12' E 028°46'0 0.0
2018-Jan-18 21:00N 44°12' E 028°46'0 0.0
2018-Jan-18 20:30N 44°12' E 028°46'0 0.0
2018-Jan-18 20:00N 44°12' E 028°46'0 0.0
2018-Jan-18 19:30N 44°12' E 028°46'0 0.0
2018-Jan-18 19:00N 44°12' E 028°46'0 0.0
2018-Jan-18 18:30N 44°12' E 028°46'0 0.0
2018-Jan-18 18:00N 44°12' E 028°46'0 0.0
2018-Jan-18 17:30N 44°12' E 028°46'0 0.0
2018-Jan-18 17:00N 44°12' E 028°46'0 0.0
2018-Jan-18 16:30N 44°12' E 028°46'0 0.0
2018-Jan-18 16:00N 44°12' E 028°46'0 0.0
2018-Jan-18 15:30N 44°12' E 028°46'0 0.0
2018-Jan-18 15:00N 44°12' E 028°46'0 0.0
2018-Jan-18 14:30N 44°12' E 028°46'0 0.1
2018-Jan-18 14:00N 44°12' E 028°46'0 0.5
2018-Jan-18 13:30N 44°12' E 028°46'1 2.5
2018-Jan-18 13:00N 44°11' E 028°47'2 4.1
2018-Jan-18 12:30N 44°13' E 028°46'2 4.4
2018-Jan-18 12:00N 44°11' E 028°48'2 3.3
2018-Jan-18 11:30N 44°10' E 028°49'1 2.5
2018-Jan-18 11:00N 44°09' E 028°50'1 1.2
2018-Jan-18 10:30N 44°08' E 028°51'1 1.8
2018-Jan-18 10:00N 44°08' E 028°51'1 1.4
2018-Jan-18 09:30N 44°07' E 028°50'1 1.1
2018-Jan-18 09:00N 44°07' E 028°50'0 0.3
2018-Jan-18 08:28N 44°07' E 028°49'1 1.3
2018-Jan-18 07:59N 44°08' E 028°49'0 0.1
2018-Jan-18 07:29N 44°08' E 028°49'0 0.1
2018-Jan-18 06:59N 44°08' E 028°49'0 0.0
2018-Jan-18 06:29N 44°08' E 028°49'0 0.1
2018-Jan-18 05:59N 44°08' E 028°49'0 0.0
2018-Jan-18 05:29N 44°08' E 028°49'0 0.0
2018-Jan-18 04:59N 44°08' E 028°49'0 0.0
2018-Jan-18 04:29N 44°08' E 028°49'0 0.0
2018-Jan-18 03:59N 44°08' E 028°49'0 0.1
2018-Jan-18 03:29N 44°08' E 028°49'0 0.1
2018-Jan-18 02:59N 44°08' E 028°49'0 0.0
2018-Jan-18 02:29N 44°08' E 028°49'0 0.1
2018-Jan-18 01:59N 44°08' E 028°49'0 0.0
2018-Jan-18 01:29N 44°08' E 028°49'0 0.1
2018-Jan-18 00:59N 44°08' E 028°49'0 0.1
2018-Jan-17 23:56N 44°08' E 028°49'  
2018-Jan-11 03:58N 39°46' E 024°54'510.2
2018-Jan-11 03:27N 39°47' E 024°47'22 9.9
2018-Jan-11 01:15N 39°49' E 024°19'2 9.6
2018-Jan-11 01:00N 39°50' E 024°16'5 9.5
2018-Jan-11 00:30N 39°50' E 024°09'5 9.4
2018-Jan-11 00:00N 39°50' E 024°03'  

Dump ship's entire track history